HEBL METAR and TAF | Updated Today

HEBL METAR

Abu Simbel Airport

Observation time: 34 min. ago

HEBL 052100Z 36005KT CAVOK 13/M01 Q1015 NOSIG

Need help? Read our tutorial on how to read METARs or read the parsed version below.

Abu Simbel Airport (HEBL) METAR

  • Weather conditions on Sun, 05 Feb 2023 21:00:00 +0000 (34 min. ago):
  • Present conditions: Dry
  • Clouds: Clear skies
  • Visibility: Greater than 10 km
  • Wind: 360 degrees at 5 knots
  • Temperature: 13 celsius
  • Dew point: -1 celsius
  • Pressure: 1015 millibars
  • Remarks: None


Useful to know...

HEBL TAF

Abu Simbel Airport

TAF HEBL 051700Z 0518/0624 35009KT CAVOK
Observation time: 4:34 hr. ago
Need help? Read our tutorial on how to read TAFs or read the parsed version below.

Parsed version of TAF for Abu Simbel Airport (HEBL)

  • From 05 February at 18:00 UTC, to day 06 of the month at 24:00 UTC
  • Visibility: Greater than 10 km
  • Wind: 350 degrees at 9

Airports near HEBL

HSSW Weather
Region: Wadi Halfa

Wadi Halfa Airport

Not found in our database